sensor_id;sensor_type;location;lat;lon;timestamp;P1;durP1;ratioP1;P2;durP2;ratioP2
61899;SDS011;47853;55.890;37.664;2023-07-31T00:01:17;8.55;;;3.30;;
61899;SDS011;47853;55.890;37.664;2023-07-31T00:03:48;9.88;;;3.95;;
61899;SDS011;47853;55.890;37.664;2023-07-31T00:06:34;5.37;;;3.40;;
61899;SDS011;47853;55.890;37.664;2023-07-31T00:09:22;8.20;;;3.47;;
61899;SDS011;47853;55.890;37.664;2023-07-31T00:15:07;5.28;;;3.20;;
61899;SDS011;47853;55.890;37.664;2023-07-31T00:17:47;5.18;;;3.65;;
61899;SDS011;47853;55.890;37.664;2023-07-31T00:20:32;11.90;;;4.13;;
61899;SDS011;47853;55.890;37.664;2023-07-31T00:29:08;6.38;;;3.05;;
61899;SDS011;47853;55.890;37.664;2023-07-31T00:35:30;10.05;;;3.40;;
61899;SDS011;47853;55.890;37.664;2023-07-31T00:43:50;8.52;;;3.72;;
61899;SDS011;47853;55.890;37.664;2023-07-31T00:46:21;7.60;;;3.15;;
61899;SDS011;47853;55.890;37.664;2023-07-31T00:54:35;9.18;;;3.58;;
61899;SDS011;47853;55.890;37.664;2023-07-31T00:59:57;7.50;;;3.47;;
61899;SDS011;47853;55.890;37.664;2023-07-31T01:02:48;10.15;;;3.58;;
61899;SDS011;47853;55.890;37.664;2023-07-31T01:05:29;8.50;;;3.80;;
61899;SDS011;47853;55.890;37.664;2023-07-31T01:11:35;8.52;;;3.97;;
61899;SDS011;47853;55.890;37.664;2023-07-31T01:14:25;6.05;;;2.95;;
61899;SDS011;47853;55.890;37.664;2023-07-31T01:17:19;7.22;;;3.53;;
61899;SDS011;47853;55.890;37.664;2023-07-31T01:19:57;4.50;;;3.20;;
61899;SDS011;47853;55.890;37.664;2023-07-31T01:28:53;5.82;;;3.28;;
61899;SDS011;47853;55.890;37.664;2023-07-31T01:31:44;8.95;;;3.00;;
61899;SDS011;47853;55.890;37.664;2023-07-31T01:34:23;5.53;;;2.83;;
61899;SDS011;47853;55.890;37.664;2023-07-31T01:37:04;5.80;;;3.03;;
61899;SDS011;47853;55.890;37.664;2023-07-31T01:39:35;4.20;;;2.70;;
61899;SDS011;47853;55.890;37.664;2023-07-31T01:42:16;4.90;;;2.97;;
61899;SDS011;47853;55.890;37.664;2023-07-31T01:45:15;4.82;;;2.80;;
61899;SDS011;47853;55.890;37.664;2023-07-31T01:47:40;5.68;;;3.20;;
61899;SDS011;47853;55.890;37.664;2023-07-31T01:50:09;7.88;;;3.00;;
61899;SDS011;47853;55.890;37.664;2023-07-31T01:55:18;13.48;;;3.10;;
61899;SDS011;47853;55.890;37.664;2023-07-31T01:57:56;4.93;;;2.83;;
61899;SDS011;47853;55.890;37.664;2023-07-31T02:01:01;7.18;;;3.22;;
61899;SDS011;47853;55.890;37.664;2023-07-31T02:03:41;5.15;;;2.72;;
61899;SDS011;47853;55.890;37.664;2023-07-31T02:06:07;7.18;;;3.20;;
61899;SDS011;47853;55.890;37.664;2023-07-31T02:08:39;7.30;;;3.05;;
61899;SDS011;47853;55.890;37.664;2023-07-31T02:13:49;8.60;;;3.17;;
61899;SDS011;47853;55.890;37.664;2023-07-31T02:16:22;7.00;;;2.90;;
61899;SDS011;47853;55.890;37.664;2023-07-31T02:18:55;4.63;;;3.15;;
61899;SDS011;47853;55.890;37.664;2023-07-31T02:21:21;8.65;;;3.42;;
61899;SDS011;47853;55.890;37.664;2023-07-31T02:23:54;5.80;;;2.63;;
61899;SDS011;47853;55.890;37.664;2023-07-31T02:26:22;4.97;;;2.80;;
61899;SDS011;47853;55.890;37.664;2023-07-31T02:28:53;7.75;;;3.25;;
61899;SDS011;47853;55.890;37.664;2023-07-31T02:31:42;6.38;;;3.50;;
61899;SDS011;47853;55.890;37.664;2023-07-31T02:36:46;6.88;;;3.15;;
61899;SDS011;47853;55.890;37.664;2023-07-31T02:42:13;8.07;;;2.30;;
61899;SDS011;47853;55.890;37.664;2023-07-31T02:47:37;5.88;;;3.13;;
61899;SDS011;47853;55.890;37.664;2023-07-31T02:50:11;7.03;;;3.15;;
61899;SDS011;47853;55.890;37.664;2023-07-31T02:55:40;5.35;;;2.95;;
61899;SDS011;47853;55.890;37.664;2023-07-31T02:58:22;5.63;;;2.85;;
61899;SDS011;47853;55.890;37.664;2023-07-31T03:01:32;7.80;;;3.08;;
61899;SDS011;47853;55.890;37.664;2023-07-31T03:04:08;5.55;;;3.00;;
61899;SDS011;47853;55.890;37.664;2023-07-31T03:06:58;7.00;;;2.72;;
61899;SDS011;47853;55.890;37.664;2023-07-31T03:18:18;6.20;;;3.28;;
61899;SDS011;47853;55.890;37.664;2023-07-31T03:20:55;3.10;;;2.40;;
61899;SDS011;47853;55.890;37.664;2023-07-31T03:23:53;3.78;;;2.53;;
61899;SDS011;47853;55.890;37.664;2023-07-31T03:26:45;5.65;;;2.85;;
61899;SDS011;47853;55.890;37.664;2023-07-31T03:29:29;5.30;;;3.22;;
61899;SDS011;47853;55.890;37.664;2023-07-31T03:32:09;5.88;;;3.05;;
61899;SDS011;47853;55.890;37.664;2023-07-31T03:34:54;5.20;;;2.85;;
61899;SDS011;47853;55.890;37.664;2023-07-31T03:37:33;8.23;;;2.83;;
61899;SDS011;47853;55.890;37.664;2023-07-31T03:42:46;9.30;;;3.00;;
61899;SDS011;47853;55.890;37.664;2023-07-31T04:06:53;8.48;;;2.85;;
61899;SDS011;47853;55.890;37.664;2023-07-31T04:10:03;11.65;;;3.30;;
61899;SDS011;47853;55.890;37.664;2023-07-31T04:12:53;5.93;;;2.80;;
61899;SDS011;47853;55.890;37.664;2023-07-31T04:15:41;8.02;;;2.60;;
61899;SDS011;47853;55.890;37.664;2023-07-31T04:18:39;5.97;;;2.67;;
61899;SDS011;47853;55.890;37.664;2023-07-31T04:21:33;8.45;;;2.60;;
61899;SDS011;47853;55.890;37.664;2023-07-31T04:27:16;5.53;;;2.65;;
61899;SDS011;47853;55.890;37.664;2023-07-31T04:29:40;6.88;;;2.83;;
61899;SDS011;47853;55.890;37.664;2023-07-31T04:38:39;6.97;;;3.72;;
61899;SDS011;47853;55.890;37.664;2023-07-31T04:44:36;4.72;;;3.05;;
61899;SDS011;47853;55.890;37.664;2023-07-31T04:49:58;9.73;;;3.20;;
61899;SDS011;47853;55.890;37.664;2023-07-31T04:52:29;5.85;;;3.08;;
61899;SDS011;47853;55.890;37.664;2023-07-31T04:55:20;9.15;;;3.28;;
61899;SDS011;47853;55.890;37.664;2023-07-31T04:57:53;9.60;;;3.20;;
61899;SDS011;47853;55.890;37.664;2023-07-31T05:00:26;6.45;;;3.03;;
61899;SDS011;47853;55.890;37.664;2023-07-31T05:03:12;7.78;;;2.78;;
61899;SDS011;47853;55.890;37.664;2023-07-31T05:05:58;11.98;;;3.17;;
61899;SDS011;47853;55.890;37.664;2023-07-31T05:08:43;7.22;;;3.00;;
61899;SDS011;47853;55.890;37.664;2023-07-31T05:11:53;8.10;;;2.63;;
61899;SDS011;47853;55.890;37.664;2023-07-31T05:14:08;7.22;;;2.65;;
61899;SDS011;47853;55.890;37.664;2023-07-31T05:16:37;7.97;;;2.90;;
61899;SDS011;47853;55.890;37.664;2023-07-31T05:19:19;6.47;;;2.30;;
61899;SDS011;47853;55.890;37.664;2023-07-31T05:22:06;5.07;;;2.50;;
61899;SDS011;47853;55.890;37.664;2023-07-31T05:25:02;6.90;;;2.25;;
61899;SDS011;47853;55.890;37.664;2023-07-31T05:27:35;8.10;;;2.78;;
61899;SDS011;47853;55.890;37.664;2023-07-31T05:30:13;4.60;;;2.22;;
61899;SDS011;47853;55.890;37.664;2023-07-31T05:32:45;8.00;;;2.30;;
61899;SDS011;47853;55.890;37.664;2023-07-31T05:35:39;5.97;;;2.42;;
61899;SDS011;47853;55.890;37.664;2023-07-31T05:38:08;5.70;;;2.53;;
61899;SDS011;47853;55.890;37.664;2023-07-31T05:40:50;10.32;;;2.42;;
61899;SDS011;47853;55.890;37.664;2023-07-31T05:43:15;10.38;;;2.05;;
61899;SDS011;47853;55.890;37.664;2023-07-31T05:48:39;5.13;;;2.15;;
61899;SDS011;47853;55.890;37.664;2023-07-31T05:51:05;6.85;;;2.10;;
61899;SDS011;47853;55.890;37.664;2023-07-31T05:53:30;3.80;;;1.80;;
61899;SDS011;47853;55.890;37.664;2023-07-31T05:55:58;11.07;;;2.10;;
61899;SDS011;47853;55.890;37.664;2023-07-31T05:58:23;9.32;;;1.88;;
61899;SDS011;47853;55.890;37.664;2023-07-31T06:00:51;4.70;;;2.22;;
61899;SDS011;47853;55.890;37.664;2023-07-31T06:03:35;5.53;;;2.22;;
61899;SDS011;47853;55.890;37.664;2023-07-31T06:06:18;6.25;;;2.42;;
61899;SDS011;47853;55.890;37.664;2023-07-31T06:14:41;5.75;;;2.03;;
61899;SDS011;47853;55.890;37.664;2023-07-31T06:17:25;2.75;;;1.85;;
61899;SDS011;47853;55.890;37.664;2023-07-31T06:20:11;3.30;;;1.90;;
61899;SDS011;47853;55.890;37.664;2023-07-31T06:22:42;4.35;;;1.98;;
61899;SDS011;47853;55.890;37.664;2023-07-31T06:25:10;6.63;;;1.92;;
61899;SDS011;47853;55.890;37.664;2023-07-31T06:27:38;6.68;;;1.83;;
61899;SDS011;47853;55.890;37.664;2023-07-31T06:30:06;4.95;;;2.20;;
61899;SDS011;47853;55.890;37.664;2023-07-31T06:32:34;4.78;;;1.80;;
61899;SDS011;47853;55.890;37.664;2023-07-31T06:37:58;4.05;;;1.60;;
61899;SDS011;47853;55.890;37.664;2023-07-31T06:40:29;6.88;;;1.50;;
61899;SDS011;47853;55.890;37.664;2023-07-31T06:43:12;5.10;;;1.58;;
61899;SDS011;47853;55.890;37.664;2023-07-31T06:45:40;4.15;;;1.50;;
61899;SDS011;47853;55.890;37.664;2023-07-31T06:48:08;8.13;;;2.20;;
61899;SDS011;47853;55.890;37.664;2023-07-31T06:50:41;8.88;;;2.00;;
61899;SDS011;47853;55.890;37.664;2023-07-31T06:55:56;3.50;;;1.52;;
61899;SDS011;47853;55.890;37.664;2023-07-31T06:58:33;5.97;;;2.00;;
61899;SDS011;47853;55.890;37.664;2023-07-31T07:00:58;7.43;;;1.60;;
61899;SDS011;47853;55.890;37.664;2023-07-31T07:03:34;10.68;;;1.60;;
61899;SDS011;47853;55.890;37.664;2023-07-31T07:06:00;6.20;;;1.58;;
61899;SDS011;47853;55.890;37.664;2023-07-31T07:08:25;4.57;;;1.60;;
61899;SDS011;47853;55.890;37.664;2023-07-31T07:10:54;1.73;;;1.30;;
61899;SDS011;47853;55.890;37.664;2023-07-31T07:13:19;3.80;;;1.30;;
61899;SDS011;47853;55.890;37.664;2023-07-31T07:15:50;1.55;;;1.13;;
61899;SDS011;47853;55.890;37.664;2023-07-31T07:18:22;2.38;;;1.25;;
61899;SDS011;47853;55.890;37.664;2023-07-31T07:20:49;1.75;;;1.25;;
61899;SDS011;47853;55.890;37.664;2023-07-31T07:23:27;6.40;;;1.30;;
61899;SDS011;47853;55.890;37.664;2023-07-31T07:25:52;8.82;;;2.00;;
61899;SDS011;47853;55.890;37.664;2023-07-31T07:28:26;7.07;;;2.22;;
61899;SDS011;47853;55.890;37.664;2023-07-31T07:30:52;10.32;;;1.70;;
61899;SDS011;47853;55.890;37.664;2023-07-31T07:33:21;2.08;;;1.67;;
61899;SDS011;47853;55.890;37.664;2023-07-31T07:35:54;2.45;;;1.20;;
61899;SDS011;47853;55.890;37.664;2023-07-31T07:38:19;6.22;;;1.50;;
61899;SDS011;47853;55.890;37.664;2023-07-31T07:40:45;4.10;;;1.52;;
61899;SDS011;47853;55.890;37.664;2023-07-31T07:43:10;3.75;;;1.23;;
61899;SDS011;47853;55.890;37.664;2023-07-31T07:45:36;3.33;;;1.30;;
61899;SDS011;47853;55.890;37.664;2023-07-31T07:48:01;3.55;;;1.58;;
61899;SDS011;47853;55.890;37.664;2023-07-31T07:50:26;2.40;;;1.42;;
61899;SDS011;47853;55.890;37.664;2023-07-31T07:52:52;4.13;;;1.27;;
61899;SDS011;47853;55.890;37.664;2023-07-31T07:55:17;3.05;;;1.45;;
61899;SDS011;47853;55.890;37.664;2023-07-31T07:57:43;2.97;;;1.23;;
61899;SDS011;47853;55.890;37.664;2023-07-31T08:00:11;11.43;;;1.45;;
61899;SDS011;47853;55.890;37.664;2023-07-31T08:02:39;3.03;;;1.08;;
61899;SDS011;47853;55.890;37.664;2023-07-31T08:05:05;2.63;;;1.50;;
61899;SDS011;47853;55.890;37.664;2023-07-31T08:07:33;6.68;;;5.75;;
61899;SDS011;47853;55.890;37.664;2023-07-31T08:10:01;5.53;;;1.27;;
61899;SDS011;47853;55.890;37.664;2023-07-31T08:12:26;3.08;;;1.50;;
61899;SDS011;47853;55.890;37.664;2023-07-31T08:14:52;4.68;;;1.83;;
61899;SDS011;47853;55.890;37.664;2023-07-31T08:17:17;3.72;;;1.55;;
61899;SDS011;47853;55.890;37.664;2023-07-31T08:19:43;1.55;;;1.33;;
61899;SDS011;47853;55.890;37.664;2023-07-31T08:22:08;3.95;;;1.25;;
61899;SDS011;47853;55.890;37.664;2023-07-31T08:24:34;3.28;;;1.45;;
61899;SDS011;47853;55.890;37.664;2023-07-31T08:26:59;4.05;;;1.80;;
61899;SDS011;47853;55.890;37.664;2023-07-31T08:29:25;1.98;;;1.63;;
61899;SDS011;47853;55.890;37.664;2023-07-31T08:31:50;1.10;;;1.00;;
61899;SDS011;47853;55.890;37.664;2023-07-31T08:34:15;12.60;;;6.35;;
61899;SDS011;47853;55.890;37.664;2023-07-31T08:36:41;9.57;;;2.72;;
61899;SDS011;47853;55.890;37.664;2023-07-31T08:39:06;2.20;;;1.50;;
61899;SDS011;47853;55.890;37.664;2023-07-31T08:41:32;2.72;;;1.42;;
61899;SDS011;47853;55.890;37.664;2023-07-31T08:44:02;6.90;;;1.40;;
61899;SDS011;47853;55.890;37.664;2023-07-31T08:46:28;2.65;;;1.40;;
61899;SDS011;47853;55.890;37.664;2023-07-31T08:48:54;9.55;;;2.40;;
61899;SDS011;47853;55.890;37.664;2023-07-31T08:51:22;2.08;;;1.70;;
61899;SDS011;47853;55.890;37.664;2023-07-31T08:53:48;1.25;;;1.10;;
61899;SDS011;47853;55.890;37.664;2023-07-31T08:56:13;2.35;;;1.58;;
61899;SDS011;47853;55.890;37.664;2023-07-31T08:58:40;5.15;;;1.70;;
61899;SDS011;47853;55.890;37.664;2023-07-31T09:01:08;3.85;;;1.30;;
61899;SDS011;47853;55.890;37.664;2023-07-31T09:03:34;3.60;;;1.45;;
61899;SDS011;47853;55.890;37.664;2023-07-31T09:06:01;5.50;;;1.55;;
61899;SDS011;47853;55.890;37.664;2023-07-31T09:08:28;2.83;;;1.35;;
61899;SDS011;47853;55.890;37.664;2023-07-31T09:10:58;6.88;;;1.60;;
61899;SDS011;47853;55.890;37.664;2023-07-31T09:13:25;3.88;;;1.60;;
61899;SDS011;47853;55.890;37.664;2023-07-31T09:15:52;2.88;;;1.40;;
61899;SDS011;47853;55.890;37.664;2023-07-31T09:18:17;2.78;;;1.08;;
61899;SDS011;47853;55.890;37.664;2023-07-31T09:20:42;3.53;;;1.30;;
61899;SDS011;47853;55.890;37.664;2023-07-31T09:23:12;5.65;;;1.50;;
61899;SDS011;47853;55.890;37.664;2023-07-31T09:25:39;6.90;;;1.60;;
61899;SDS011;47853;55.890;37.664;2023-07-31T09:28:08;3.00;;;1.60;;
61899;SDS011;47853;55.890;37.664;2023-07-31T09:30:50;8.35;;;2.10;;
61899;SDS011;47853;55.890;37.664;2023-07-31T09:33:18;1.30;;;1.20;;
61899;SDS011;47853;55.890;37.664;2023-07-31T09:35:44;2.60;;;1.92;;
61899;SDS011;47853;55.890;37.664;2023-07-31T09:38:10;6.75;;;6.07;;
61899;SDS011;47853;55.890;37.664;2023-07-31T09:43:53;1.75;;;1.30;;
61899;SDS011;47853;55.890;37.664;2023-07-31T09:46:19;3.30;;;1.58;;
61899;SDS011;47853;55.890;37.664;2023-07-31T09:48:45;1.67;;;1.48;;
61899;SDS011;47853;55.890;37.664;2023-07-31T09:51:11;3.67;;;1.60;;
61899;SDS011;47853;55.890;37.664;2023-07-31T09:53:39;1.75;;;1.48;;
61899;SDS011;47853;55.890;37.664;2023-07-31T09:56:05;7.50;;;1.92;;
61899;SDS011;47853;55.890;37.664;2023-07-31T09:58:31;1.95;;;1.45;;
61899;SDS011;47853;55.890;37.664;2023-07-31T10:01:02;3.33;;;1.45;;
61899;SDS011;47853;55.890;37.664;2023-07-31T10:03:27;4.72;;;1.60;;
61899;SDS011;47853;55.890;37.664;2023-07-31T10:05:55;2.70;;;1.58;;
61899;SDS011;47853;55.890;37.664;2023-07-31T10:08:22;3.63;;;1.77;;
61899;SDS011;47853;55.890;37.664;2023-07-31T10:10:52;4.65;;;1.70;;
61899;SDS011;47853;55.890;37.664;2023-07-31T10:13:18;1.65;;;1.42;;
61899;SDS011;47853;55.890;37.664;2023-07-31T10:15:46;4.82;;;1.45;;
61899;SDS011;47853;55.890;37.664;2023-07-31T10:18:11;2.85;;;1.40;;
61899;SDS011;47853;55.890;37.664;2023-07-31T10:20:37;3.72;;;1.50;;
61899;SDS011;47853;55.890;37.664;2023-07-31T10:23:05;2.00;;;1.40;;
61899;SDS011;47853;55.890;37.664;2023-07-31T10:25:31;2.30;;;1.65;;
61899;SDS011;47853;55.890;37.664;2023-07-31T10:28:00;2.10;;;1.80;;
61899;SDS011;47853;55.890;37.664;2023-07-31T10:30:26;3.10;;;1.70;;
61899;SDS011;47853;55.890;37.664;2023-07-31T10:32:54;4.75;;;2.25;;
61899;SDS011;47853;55.890;37.664;2023-07-31T10:35:21;3.40;;;1.33;;
61899;SDS011;47853;55.890;37.664;2023-07-31T10:37:46;4.18;;;1.25;;
61899;SDS011;47853;55.890;37.664;2023-07-31T10:40:24;1.85;;;1.50;;
61899;SDS011;47853;55.890;37.664;2023-07-31T10:42:54;1.58;;;1.15;;
61899;SDS011;47853;55.890;37.664;2023-07-31T10:47:51;7.43;;;1.60;;
61899;SDS011;47853;55.890;37.664;2023-07-31T10:52:52;1.90;;;1.50;;
61899;SDS011;47853;55.890;37.664;2023-07-31T10:55:32;6.13;;;1.70;;
61899;SDS011;47853;55.890;37.664;2023-07-31T10:58:15;5.05;;;1.60;;
61899;SDS011;47853;55.890;37.664;2023-07-31T11:00:44;3.00;;;1.65;;
61899;SDS011;47853;55.890;37.664;2023-07-31T11:03:10;3.53;;;1.70;;
61899;SDS011;47853;55.890;37.664;2023-07-31T11:05:59;6.97;;;2.10;;
61899;SDS011;47853;55.890;37.664;2023-07-31T11:08:34;3.22;;;2.03;;
61899;SDS011;47853;55.890;37.664;2023-07-31T11:11:06;2.28;;;1.50;;
61899;SDS011;47853;55.890;37.664;2023-07-31T11:16:11;1.70;;;1.60;;
61899;SDS011;47853;55.890;37.664;2023-07-31T11:18:47;2.30;;;1.63;;
61899;SDS011;47853;55.890;37.664;2023-07-31T11:21:22;5.13;;;1.90;;
61899;SDS011;47853;55.890;37.664;2023-07-31T11:23:49;2.55;;;1.65;;
61899;SDS011;47853;55.890;37.664;2023-07-31T11:26:20;3.00;;;1.70;;
61899;SDS011;47853;55.890;37.664;2023-07-31T11:28:51;5.07;;;1.80;;
61899;SDS011;47853;55.890;37.664;2023-07-31T11:31:17;2.70;;;2.00;;
61899;SDS011;47853;55.890;37.664;2023-07-31T11:33:43;10.82;;;2.38;;
61899;SDS011;47853;55.890;37.664;2023-07-31T11:36:19;3.65;;;1.52;;
61899;SDS011;47853;55.890;37.664;2023-07-31T11:38:48;1.98;;;1.40;;
61899;SDS011;47853;55.890;37.664;2023-07-31T11:41:21;5.10;;;1.83;;
61899;SDS011;47853;55.890;37.664;2023-07-31T11:43:46;3.65;;;1.77;;
61899;SDS011;47853;55.890;37.664;2023-07-31T11:46:12;3.38;;;2.05;;
61899;SDS011;47853;55.890;37.664;2023-07-31T11:48:39;4.70;;;2.28;;
61899;SDS011;47853;55.890;37.664;2023-07-31T11:51:06;2.33;;;1.80;;
61899;SDS011;47853;55.890;37.664;2023-07-31T11:53:36;6.60;;;1.85;;
61899;SDS011;47853;55.890;37.664;2023-07-31T11:56:07;5.47;;;2.30;;
61899;SDS011;47853;55.890;37.664;2023-07-31T11:58:35;3.42;;;1.55;;
61899;SDS011;47853;55.890;37.664;2023-07-31T12:01:01;4.72;;;2.10;;
61899;SDS011;47853;55.890;37.664;2023-07-31T12:03:27;3.45;;;2.10;;
61899;SDS011;47853;55.890;37.664;2023-07-31T12:06:29;9.32;;;3.25;;
61899;SDS011;47853;55.890;37.664;2023-07-31T12:09:19;5.72;;;2.28;;
61899;SDS011;47853;55.890;37.664;2023-07-31T12:12:10;3.03;;;1.60;;
61899;SDS011;47853;55.890;37.664;2023-07-31T12:14:56;6.25;;;2.20;;
61899;SDS011;47853;55.890;37.664;2023-07-31T12:17:27;6.00;;;2.30;;
61899;SDS011;47853;55.890;37.664;2023-07-31T12:19:53;4.93;;;1.85;;
61899;SDS011;47853;55.890;37.664;2023-07-31T12:22:19;4.13;;;2.08;;
61899;SDS011;47853;55.890;37.664;2023-07-31T13:45:26;3.15;;;1.70;;
61899;SDS011;47853;55.890;37.664;2023-07-31T13:48:03;5.10;;;2.20;;
61899;SDS011;47853;55.890;37.664;2023-07-31T14:10:28;6.05;;;2.60;;
61899;SDS011;47853;55.890;37.664;2023-07-31T14:29:09;8.38;;;2.42;;
61899;SDS011;47853;55.890;37.664;2023-07-31T15:04:28;6.85;;;2.08;;
61899;SDS011;47853;55.890;37.664;2023-07-31T15:07:30;2.72;;;1.90;;
61899;SDS011;47853;55.890;37.664;2023-07-31T15:19:34;4.20;;;2.17;;
61899;SDS011;47853;55.890;37.664;2023-07-31T15:22:17;4.35;;;2.60;;
61899;SDS011;47853;55.890;37.664;2023-07-31T15:41:30;9.48;;;2.40;;
61899;SDS011;47853;55.890;37.664;2023-07-31T21:07:59;13.38;;;5.78;;
61899;SDS011;47853;55.890;37.664;2023-07-31T21:10:40;10.68;;;4.90;;
61899;SDS011;47853;55.890;37.664;2023-07-31T21:13:08;8.85;;;4.90;;
61899;SDS011;47853;55.890;37.664;2023-07-31T21:15:42;10.15;;;5.20;;
61899;SDS011;47853;55.890;37.664;2023-07-31T21:18:08;9.65;;;5.00;;
61899;SDS011;47853;55.890;37.664;2023-07-31T21:20:36;12.75;;;5.43;;
61899;SDS011;47853;55.890;37.664;2023-07-31T21:23:02;9.35;;;4.97;;
61899;SDS011;47853;55.890;37.664;2023-07-31T21:25:31;12.00;;;5.53;;
61899;SDS011;47853;55.890;37.664;2023-07-31T21:28:00;16.20;;;5.97;;
61899;SDS011;47853;55.890;37.664;2023-07-31T21:30:26;14.93;;;5.82;;
61899;SDS011;47853;55.890;37.664;2023-07-31T21:32:52;22.00;;;6.95;;
61899;SDS011;47853;55.890;37.664;2023-07-31T21:38:09;21.67;;;8.18;;
61899;SDS011;47853;55.890;37.664;2023-07-31T21:40:35;20.60;;;7.28;;
61899;SDS011;47853;55.890;37.664;2023-07-31T21:45:59;23.05;;;8.63;;
61899;SDS011;47853;55.890;37.664;2023-07-31T21:57:51;9.38;;;6.00;;
61899;SDS011;47853;55.890;37.664;2023-07-31T22:00:21;15.80;;;5.90;;
61899;SDS011;47853;55.890;37.664;2023-07-31T22:05:44;14.35;;;6.43;;
61899;SDS011;47853;55.890;37.664;2023-07-31T22:08:12;14.85;;;7.15;;
61899;SDS011;47853;55.890;37.664;2023-07-31T22:10:37;16.38;;;7.40;;
61899;SDS011;47853;55.890;37.664;2023-07-31T22:13:03;18.67;;;7.72;;
61899;SDS011;47853;55.890;37.664;2023-07-31T22:15:28;14.85;;;7.43;;
61899;SDS011;47853;55.890;37.664;2023-07-31T22:18:00;12.88;;;6.10;;
61899;SDS011;47853;55.890;37.664;2023-07-31T22:20:25;7.47;;;4.55;;
61899;SDS011;47853;55.890;37.664;2023-07-31T22:22:59;10.60;;;4.90;;
61899;SDS011;47853;55.890;37.664;2023-07-31T22:25:42;10.23;;;5.03;;
61899;SDS011;47853;55.890;37.664;2023-07-31T22:28:19;11.27;;;5.90;;
61899;SDS011;47853;55.890;37.664;2023-07-31T22:30:45;13.73;;;6.00;;
61899;SDS011;47853;55.890;37.664;2023-07-31T22:41:55;10.25;;;4.82;;
61899;SDS011;47853;55.890;37.664;2023-07-31T22:54:15;14.13;;;5.97;;
61899;SDS011;47853;55.890;37.664;2023-07-31T22:56:43;8.52;;;5.82;;
61899;SDS011;47853;55.890;37.664;2023-07-31T22:59:28;13.93;;;6.30;;
61899;SDS011;47853;55.890;37.664;2023-07-31T23:02:07;12.77;;;6.35;;
61899;SDS011;47853;55.890;37.664;2023-07-31T23:05:07;19.52;;;7.30;;
